Time;durP1;ratioP1;P1;durP2;ratioP2;P2;SDS_P1;SDS_P2;PMS_P1;PMS_P2;Temp;Humidity;BMP_temperature;BMP_pressure;BME280_temperature;BME280_humidity;BME280_pressure;Samples;Min_cycle;Max_cycle;Signal;HPM_P1;HPM_P2
2021/11/13 00:00:18;;;;;;;3.15;1.75;;;7.30;99.90;;;;;;5057604;28;20201;-79
2021/11/13 00:02:46;;;;;;;8.88;1.58;;;7.20;99.90;;;;;;5057748;28;20183;-79
2021/11/13 00:05:12;;;;;;;8.02;2.05;;;7.20;99.90;;;;;;5058239;28;20225;-79
2021/11/13 00:07:40;;;;;;;1.73;1.63;;;7.20;99.90;;;;;;5059470;28;20212;-79
2021/11/13 00:10:11;;;;;;;4.82;3.38;;;7.20;99.90;;;;;;5059465;28;20199;-79
2021/11/13 00:12:39;;;;;;;4.93;2.58;;;7.20;99.90;;;;;;5061316;28;20214;-80
2021/11/13 00:15:08;;;;;;;3.30;2.65;;;7.10;99.90;;;;;;5061625;28;20197;-79
2021/11/13 00:17:35;;;;;;;9.35;2.80;;;7.10;99.90;;;;;;5062271;28;20248;-80
2021/11/13 00:20:01;;;;;;;1.67;1.58;;;7.10;99.90;;;;;;5062051;28;20209;-80
2021/11/13 00:22:28;;;;;;;2.72;2.35;;;7.10;99.90;;;;;;5062435;28;20190;-80
2021/11/13 00:24:55;;;;;;;1.83;1.73;;;7.10;99.90;;;;;;5062827;28;20200;-80
2021/11/13 00:27:24;;;;;;;3.45;0.80;;;7.10;99.90;;;;;;5062690;28;20212;-80
2021/11/13 00:29:50;;;;;;;7.22;2.15;;;7.10;99.90;;;;;;5063366;28;20195;-80
2021/11/13 00:32:17;;;;;;;2.80;1.05;;;7.10;99.90;;;;;;5062318;28;20207;-81
2021/11/13 00:34:44;;;;;;;2.65;2.35;;;7.20;99.90;;;;;;5062292;28;20201;-79
2021/11/13 00:37:11;;;;;;;0.75;0.75;;;7.20;99.90;;;;;;5062245;28;20212;-80
2021/11/13 00:39:37;;;;;;;0.65;0.63;;;7.20;99.90;;;;;;5062453;28;20678;-78
2021/11/13 00:42:05;;;;;;;6.85;5.75;;;7.20;99.90;;;;;;5061542;28;20206;-80
2021/11/13 00:44:34;;;;;;;1.88;0.77;;;7.30;99.90;;;;;;5068841;28;20189;-82
2021/11/13 00:47:01;;;;;;;1.58;0.85;;;7.30;99.90;;;;;;5076084;28;20224;-83
2021/11/13 00:49:28;;;;;;;2.67;2.15;;;7.30;99.90;;;;;;5073568;28;20587;-82
2021/11/13 00:51:54;;;;;;;0.50;0.40;;;7.30;99.90;;;;;;5074274;28;20203;-84
2021/11/13 00:54:22;;;;;;;1.23;1.13;;;7.30;99.90;;;;;;5072260;28;20224;-80
2021/11/13 00:56:49;;;;;;;6.30;2.35;;;7.40;99.90;;;;;;5071574;28;20711;-83
2021/11/13 00:59:18;;;;;;;1.73;1.13;;;7.40;99.90;;;;;;5075068;28;20211;-83
2021/11/13 01:01:46;;;;;;;0.70;0.57;;;7.30;99.90;;;;;;5072602;28;20174;-78
2021/11/13 01:04:12;;;;;;;1.40;1.30;;;7.20;99.90;;;;;;5070546;28;20551;-83
2021/11/13 01:06:39;;;;;;;5.28;3.22;;;7.20;99.90;;;;;;5069171;28;20222;-80
2021/11/13 01:09:06;;;;;;;2.00;1.92;;;7.20;99.90;;;;;;5054129;28;20204;-81
2021/11/13 01:11:33;;;;;;;1.35;0.95;;;7.10;99.90;;;;;;5053919;28;20202;-79
2021/11/13 01:14:00;;;;;;;1.40;1.30;;;7.00;99.90;;;;;;5053813;28;20232;-80
2021/11/13 01:16:27;;;;;;;2.15;2.05;;;7.00;99.90;;;;;;5054119;28;20229;-79
2021/11/13 01:18:56;;;;;;;2.58;2.47;;;7.00;99.90;;;;;;5053424;28;20263;-79
2021/11/13 01:21:24;;;;;;;5.57;2.22;;;6.90;99.90;;;;;;5052731;28;20201;-79
2021/11/13 01:23:52;;;;;;;2.15;1.13;;;6.90;99.90;;;;;;5052717;28;20288;-80
2021/11/13 01:26:19;;;;;;;2.60;1.02;;;6.90;99.90;;;;;;5052868;28;20208;-80
2021/11/13 01:28:46;;;;;;;3.70;2.05;;;6.90;99.90;;;;;;5052729;28;20200;-80
2021/11/13 01:31:14;;;;;;;1.35;1.05;;;6.90;99.90;;;;;;5053353;28;20200;-79
2021/11/13 01:33:42;;;;;;;1.35;1.05;;;6.90;99.90;;;;;;5056822;28;20459;-80
2021/11/13 01:36:10;;;;;;;2.58;1.48;;;6.90;99.90;;;;;;5056322;28;20224;-80
2021/11/13 01:38:38;;;;;;;1.70;1.60;;;6.90;99.90;;;;;;5058056;28;20196;-80
2021/11/13 01:41:06;;;;;;;1.42;1.33;;;7.00;99.90;;;;;;5055914;28;20668;-79
2021/11/13 01:43:34;;;;;;;8.02;2.28;;;7.10;99.90;;;;;;5056574;28;20190;-80
2021/11/13 01:46:02;;;;;;;0.88;0.80;;;7.10;99.90;;;;;;5056871;28;20208;-80
2021/11/13 01:48:29;;;;;;;2.15;1.52;;;7.10;99.90;;;;;;5056831;28;20201;-80
2021/11/13 01:50:57;;;;;;;0.80;0.80;;;7.20;99.90;;;;;;5056520;28;20206;-80
2021/11/13 01:53:27;;;;;;;1.80;1.70;;;7.20;99.90;;;;;;5057035;28;20246;-79
2021/11/13 01:55:56;;;;;;;2.38;2.17;;;7.30;99.90;;;;;;5056673;28;20231;-80
2021/11/13 01:58:24;;;;;;;4.88;1.92;;;7.30;99.90;;;;;;5056619;28;20219;-80
2021/11/13 02:00:54;;;;;;;3.90;3.70;;;7.40;99.90;;;;;;5056643;28;20222;-80
2021/11/13 02:03:22;;;;;;;2.55;1.85;;;7.50;99.90;;;;;;5056239;28;20198;-80
2021/11/13 02:05:51;;;;;;;0.50;0.40;;;7.50;99.90;;;;;;5056317;28;20205;-81
2021/11/13 02:08:18;;;;;;;4.43;1.27;;;7.60;99.90;;;;;;5056191;28;20281;-81
2021/11/13 02:10:47;;;;;;;3.45;1.40;;;7.60;99.90;;;;;;5056367;28;20201;-79
2021/11/13 02:13:14;;;;;;;5.47;3.65;;;7.70;99.90;;;;;;5056371;28;20583;-78
2021/11/13 02:15:41;;;;;;;4.97;1.42;;;7.70;99.90;;;;;;5056323;28;20216;-79
2021/11/13 02:18:08;;;;;;;4.32;3.90;;;7.60;99.90;;;;;;5055914;28;20225;-78
2021/11/13 02:20:39;;;;;;;4.28;0.88;;;7.60;99.90;;;;;;5055632;28;20201;-80
2021/11/13 02:23:09;;;;;;;4.38;3.15;;;7.50;99.90;;;;;;5056363;28;20185;-80
2021/11/13 02:25:37;;;;;;;1.83;1.50;;;7.40;99.90;;;;;;5056585;28;20209;-80
2021/11/13 02:28:05;;;;;;;6.35;5.13;;;7.30;99.90;;;;;;5055920;28;20224;-80
2021/11/13 02:30:33;;;;;;;2.17;1.27;;;7.30;99.90;;;;;;5055876;28;20204;-79
2021/11/13 02:32:59;;;;;;;1.70;1.60;;;7.20;99.90;;;;;;5056202;28;20199;-79
2021/11/13 02:35:31;;;;;;;10.77;2.05;;;7.20;99.90;;;;;;5055494;28;20196;-79
2021/11/13 02:38:08;;;;;;;3.30;3.05;;;7.10;99.90;;;;;;5055330;28;20309;-80
2021/11/13 02:40:35;;;;;;;5.32;3.13;;;7.10;99.90;;;;;;5055401;28;20204;-77
2021/11/13 02:43:02;;;;;;;2.55;2.15;;;7.10;99.90;;;;;;5054366;28;20211;-81
2021/11/13 02:45:31;;;;;;;0.52;0.50;;;7.10;99.90;;;;;;5055785;28;20207;-79
2021/11/13 02:48:02;;;;;;;2.80;1.15;;;7.10;99.90;;;;;;5055507;28;20229;-80
2021/11/13 02:50:30;;;;;;;4.53;3.35;;;7.10;99.90;;;;;;5055669;28;20520;-78
2021/11/13 02:53:00;;;;;;;1.80;1.70;;;7.10;99.90;;;;;;5055606;28;20202;-79
2021/11/13 02:55:28;;;;;;;2.63;2.40;;;7.10;99.90;;;;;;5055982;28;20183;-79
2021/11/13 02:57:55;;;;;;;7.35;1.83;;;7.10;99.90;;;;;;5056086;28;20318;-80
2021/11/13 03:00:25;;;;;;;2.60;2.20;;;7.00;99.90;;;;;;5055333;28;20195;-80
2021/11/13 03:02:52;;;;;;;3.35;2.67;;;7.00;99.90;;;;;;5055253;28;20200;-79
2021/11/13 03:05:24;;;;;;;11.40;4.57;;;7.00;99.90;;;;;;5055326;28;20541;-79
2021/11/13 03:07:51;;;;;;;3.00;2.75;;;7.00;99.90;;;;;;5055040;28;20228;-79
2021/11/13 03:10:21;;;;;;;6.40;4.43;;;6.90;99.90;;;;;;5055322;28;20556;-78
2021/11/13 03:12:48;;;;;;;3.47;2.88;;;6.90;99.90;;;;;;5055196;28;20200;-79
2021/11/13 03:15:17;;;;;;;1.10;1.02;;;7.00;99.90;;;;;;5055353;28;20222;-79
2021/11/13 03:17:47;;;;;;;1.60;1.50;;;6.90;99.90;;;;;;5055239;28;20606;-80
2021/11/13 03:20:17;;;;;;;1.58;1.50;;;6.80;99.90;;;;;;5055090;28;20196;-79
2021/11/13 03:22:44;;;;;;;36.83;3.30;;;6.80;99.90;;;;;;5055830;28;20565;-80
2021/11/13 03:25:13;;;;;;;1.17;1.08;;;6.80;99.90;;;;;;5055328;28;20195;-80
2021/11/13 03:27:43;;;;;;;4.68;3.35;;;6.80;99.90;;;;;;5055334;28;20307;-80
2021/11/13 03:30:11;;;;;;;4.80;3.65;;;6.80;99.90;;;;;;5055341;28;20568;-77
2021/11/13 03:32:38;;;;;;;1.88;1.77;;;6.80;99.90;;;;;;5055724;28;20207;-80
2021/11/13 03:35:07;;;;;;;4.55;2.10;;;6.80;99.90;;;;;;5054557;28;20237;-80
2021/11/13 03:37:34;;;;;;;0.63;0.60;;;6.80;99.90;;;;;;5055187;28;20288;-78
2021/11/13 03:40:02;;;;;;;6.65;4.88;;;6.80;99.90;;;;;;5055227;28;20199;-81
2021/11/13 03:42:31;;;;;;;1.83;1.42;;;6.90;99.90;;;;;;5055241;28;20211;-78
2021/11/13 03:44:59;;;;;;;2.78;2.63;;;6.80;99.90;;;;;;5054725;28;20199;-80
2021/11/13 03:47:26;;;;;;;11.25;7.20;;;6.80;99.90;;;;;;5053899;28;20619;-79
2021/11/13 03:49:53;;;;;;;2.95;2.67;;;6.80;99.90;;;;;;5054194;28;20197;-80
2021/11/13 03:52:20;;;;;;;2.22;2.03;;;6.80;99.90;;;;;;5054037;28;20192;-78
2021/11/13 03:54:47;;;;;;;4.22;2.40;;;6.80;99.90;;;;;;5053889;28;20222;-78
2021/11/13 03:57:14;;;;;;;3.05;1.85;;;6.80;99.90;;;;;;5053909;28;20220;-79
2021/11/13 03:59:40;;;;;;;1.63;1.52;;;6.90;99.90;;;;;;5053955;28;20191;-80
2021/11/13 04:02:10;;;;;;;2.97;2.75;;;6.90;99.90;;;;;;5052659;28;20579;-78
2021/11/13 04:04:37;;;;;;;3.13;2.83;;;6.90;99.90;;;;;;5052995;28;20657;-77
2021/11/13 04:07:04;;;;;;;1.38;1.27;;;7.00;99.90;;;;;;5052882;28;20211;-78
2021/11/13 04:09:31;;;;;;;2.53;2.03;;;7.00;99.90;;;;;;5052735;28;20203;-77
2021/11/13 04:12:03;;;;;;;1.20;0.80;;;6.90;99.90;;;;;;5052241;28;20198;-78
2021/11/13 04:14:30;;;;;;;3.25;3.05;;;7.00;99.90;;;;;;5053675;28;20212;-79
2021/11/13 04:16:57;;;;;;;0.93;0.68;;;7.00;99.90;;;;;;5053970;28;20220;-79
2021/11/13 04:19:25;;;;;;;3.38;3.13;;;7.00;99.90;;;;;;5053556;28;20190;-78
2021/11/13 04:21:52;;;;;;;1.40;0.73;;;7.00;99.90;;;;;;5053522;28;20605;-80
2021/11/13 04:24:19;;;;;;;6.18;5.35;;;7.00;99.90;;;;;;5054006;28;20187;-78
2021/11/13 04:26:46;;;;;;;3.60;3.30;;;7.10;99.90;;;;;;5053389;28;20604;-79
2021/11/13 04:29:13;;;;;;;3.70;1.80;;;7.10;99.90;;;;;;5053902;28;20191;-79
2021/11/13 04:31:40;;;;;;;3.20;3.03;;;7.10;99.90;;;;;;5053780;28;20199;-79
2021/11/13 04:34:08;;;;;;;2.17;2.08;;;7.00;99.90;;;;;;5054542;28;20219;-78
2021/11/13 04:36:38;;;;;;;5.57;3.33;;;7.10;99.90;;;;;;5053961;28;20216;-79
2021/11/13 04:39:06;;;;;;;8.57;4.43;;;7.10;99.90;;;;;;5053926;28;20203;-78
2021/11/13 04:41:33;;;;;;;1.63;1.38;;;7.10;99.90;;;;;;5053324;28;20200;-79
2021/11/13 04:44:00;;;;;;;2.40;2.20;;;7.10;99.90;;;;;;5054138;28;20199;-77
2021/11/13 04:46:27;;;;;;;4.30;1.35;;;7.10;99.90;;;;;;5053789;28;20579;-79
2021/11/13 04:48:54;;;;;;;2.72;1.30;;;7.20;99.90;;;;;;5053564;28;20201;-79
2021/11/13 04:51:21;;;;;;;15.48;8.40;;;7.20;99.90;;;;;;5054021;28;20192;-79
2021/11/13 04:53:50;;;;;;;0.77;0.63;;;7.20;99.90;;;;;;5053381;28;20199;-80
2021/11/13 04:56:17;;;;;;;2.90;2.42;;;7.30;99.90;;;;;;5052992;28;20218;-78
2021/11/13 04:58:44;;;;;;;9.43;5.75;;;7.30;99.90;;;;;;5053656;28;20424;-79
2021/11/13 05:01:11;;;;;;;1.45;1.45;;;7.30;99.90;;;;;;5053260;28;20197;-79
2021/11/13 05:03:38;;;;;;;3.28;2.28;;;7.30;99.90;;;;;;5053575;28;20197;-78
2021/11/13 05:06:05;;;;;;;4.75;2.17;;;7.30;99.90;;;;;;5056626;28;20195;-77
2021/11/13 05:08:32;;;;;;;14.30;5.38;;;7.30;99.90;;;;;;5051971;28;20196;-79
2021/11/13 05:11:00;;;;;;;0.60;0.60;;;7.30;99.90;;;;;;5051803;28;20199;-79
2021/11/13 05:13:27;;;;;;;11.02;9.95;;;7.30;99.90;;;;;;5052239;28;20190;-78
2021/11/13 05:15:53;;;;;;;3.20;1.60;;;7.30;99.90;;;;;;5051960;28;20220;-78
2021/11/13 05:18:21;;;;;;;4.75;4.35;;;7.30;99.90;;;;;;5051804;28;20227;-79
2021/11/13 05:20:47;;;;;;;5.50;3.30;;;7.30;99.90;;;;;;5051795;28;20294;-78
2021/11/13 05:23:14;;;;;;;0.50;0.40;;;7.30;99.90;;;;;;5052632;28;20197;-78
2021/11/13 05:25:41;;;;;;;7.03;4.97;;;7.30;99.90;;;;;;5052376;28;20190;-78
2021/11/13 05:28:09;;;;;;;7.63;2.80;;;7.30;99.90;;;;;;5052211;28;20668;-77
2021/11/13 05:30:36;;;;;;;4.10;3.72;;;7.30;99.90;;;;;;5052212;28;20662;-79
2021/11/13 05:33:03;;;;;;;12.30;7.78;;;7.30;99.90;;;;;;5051977;28;20203;-79
2021/11/13 05:35:29;;;;;;;3.80;1.15;;;7.30;99.90;;;;;;5051571;28;20307;-78
2021/11/13 05:37:56;;;;;;;1.17;1.08;;;7.30;99.90;;;;;;5051772;28;20223;-78
2021/11/13 05:40:24;;;;;;;0.65;0.63;;;7.30;99.90;;;;;;5052518;28;20199;-79
2021/11/13 05:42:51;;;;;;;1.98;1.55;;;7.30;99.90;;;;;;5052656;28;20666;-79
2021/11/13 05:45:19;;;;;;;2.70;1.95;;;7.30;99.90;;;;;;5052887;28;20339;-79
2021/11/13 05:47:46;;;;;;;11.90;7.63;;;7.30;99.90;;;;;;5052733;28;20258;-79
2021/11/13 05:50:16;;;;;;;3.47;2.90;;;7.30;99.90;;;;;;5052216;28;20291;-77
2021/11/13 05:52:46;;;;;;;0.65;0.65;;;7.30;99.90;;;;;;5052806;28;20202;-76
2021/11/13 05:55:14;;;;;;;1.55;1.20;;;7.30;99.90;;;;;;5052992;28;20211;-78
2021/11/13 05:57:41;;;;;;;5.03;4.55;;;7.30;99.90;;;;;;5052836;28;20231;-79
2021/11/13 06:00:11;;;;;;;3.92;3.63;;;7.40;99.90;;;;;;5051920;28;20196;-79
2021/11/13 06:02:39;;;;;;;2.05;1.05;;;7.40;99.90;;;;;;5053223;28;20196;-79
2021/11/13 06:05:07;;;;;;;1.83;1.73;;;7.40;99.90;;;;;;5052030;28;20212;-79
2021/11/13 06:07:34;;;;;;;9.77;3.60;;;7.40;99.90;;;;;;5051590;28;20222;-77
2021/11/13 06:10:00;;;;;;;8.70;5.97;;;7.40;99.90;;;;;;5051524;28;20206;-79
2021/11/13 06:12:27;;;;;;;4.30;2.60;;;7.40;99.90;;;;;;5051153;28;20196;-79
2021/11/13 06:14:54;;;;;;;5.07;3.17;;;7.40;99.90;;;;;;5051048;28;20212;-79
2021/11/13 06:17:21;;;;;;;1.70;1.60;;;7.40;99.90;;;;;;5052305;28;20224;-78
2021/11/13 06:19:49;;;;;;;2.50;2.30;;;7.40;99.90;;;;;;5054731;28;20201;-77
2021/11/13 06:22:16;;;;;;;2.70;1.73;;;7.40;99.90;;;;;;5054820;28;20203;-78
2021/11/13 06:24:42;;;;;;;0.88;0.88;;;7.40;99.90;;;;;;5054182;28;20194;-78
2021/11/13 06:27:10;;;;;;;7.10;3.97;;;7.40;99.90;;;;;;5054673;28;20522;-77
2021/11/13 06:29:37;;;;;;;2.78;2.58;;;7.40;99.90;;;;;;5054534;28;20203;-77
2021/11/13 06:32:04;;;;;;;0.50;0.50;;;7.40;99.90;;;;;;5054241;28;20195;-77
2021/11/13 06:34:31;;;;;;;5.13;3.03;;;7.40;99.90;;;;;;5053791;28;20212;-79
2021/11/13 06:36:59;;;;;;;1.83;1.80;;;7.40;99.90;;;;;;5053864;28;20230;-78
2021/11/13 06:39:25;;;;;;;1.77;1.70;;;7.40;99.90;;;;;;5054718;28;20197;-78
2021/11/13 06:41:52;;;;;;;4.10;2.38;;;7.40;99.90;;;;;;5054077;28;20210;-77
2021/11/13 06:44:19;;;;;;;0.50;0.50;;;7.40;99.90;;;;;;5054351;28;20196;-77
2021/11/13 06:46:46;;;;;;;5.85;3.03;;;7.40;99.90;;;;;;5054351;28;20228;-77
2021/11/13 06:49:13;;;;;;;0.75;0.65;;;7.50;99.90;;;;;;5053703;28;20215;-76
2021/11/13 06:51:41;;;;;;;2.05;1.83;;;7.50;99.90;;;;;;5053710;28;20205;-74
2021/11/13 06:54:09;;;;;;;2.60;2.50;;;7.50;99.90;;;;;;5053863;28;20222;-77
2021/11/13 06:56:36;;;;;;;5.00;3.63;;;7.60;99.90;;;;;;5053998;28;20227;-78
2021/11/13 06:59:03;;;;;;;4.28;3.17;;;7.50;99.90;;;;;;5053907;28;20299;-77
2021/11/13 07:01:29;;;;;;;6.43;4.45;;;7.60;99.90;;;;;;5053751;28;20206;-77
2021/11/13 07:03:56;;;;;;;3.25;3.05;;;7.60;99.90;;;;;;5053310;28;20682;-77
2021/11/13 07:06:23;;;;;;;4.40;2.17;;;7.60;99.90;;;;;;5053930;28;20194;-78
2021/11/13 07:08:50;;;;;;;3.38;3.17;;;7.60;99.90;;;;;;5053877;28;20657;-78
2021/11/13 07:11:18;;;;;;;0.50;0.40;;;7.60;99.90;;;;;;5053009;28;20192;-77
2021/11/13 07:13:45;;;;;;;2.65;1.52;;;7.60;99.90;;;;;;5053672;28;20215;-77
2021/11/13 07:16:11;;;;;;;2.55;2.45;;;7.70;99.90;;;;;;5053565;28;20226;-77
2021/11/13 07:18:38;;;;;;;2.40;2.22;;;7.70;99.90;;;;;;5053721;28;20200;-77
2021/11/13 07:21:07;;;;;;;6.07;2.60;;;7.70;99.90;;;;;;5052513;28;20202;-77
2021/11/13 07:23:35;;;;;;;10.65;8.18;;;7.70;99.90;;;;;;5053563;28;20222;-77
2021/11/13 07:26:04;;;;;;;7.82;2.55;;;7.70;99.90;;;;;;5053405;28;20533;-77
2021/11/13 07:28:37;;;;;;;9.18;7.28;;;7.70;99.90;;;;;;5052848;28;20203;-77
2021/11/13 07:31:05;;;;;;;1.00;0.98;;;7.70;99.90;;;;;;5052647;28;20188;-78
2021/11/13 07:33:32;;;;;;;1.50;1.10;;;7.70;99.90;;;;;;5053277;28;20207;-77
2021/11/13 07:35:58;;;;;;;3.35;1.05;;;7.80;99.90;;;;;;5052384;28;20608;-77
2021/11/13 07:38:25;;;;;;;2.70;2.60;;;7.80;99.90;;;;;;5053161;28;20212;-78
2021/11/13 07:40:52;;;;;;;4.70;3.38;;;7.80;99.90;;;;;;5053125;28;20196;-76
2021/11/13 07:43:19;;;;;;;3.55;3.30;;;7.80;99.90;;;;;;5052939;28;20471;-78
2021/11/13 07:45:47;;;;;;;1.20;0.60;;;7.80;99.90;;;;;;5053093;28;20199;-78
2021/11/13 07:48:14;;;;;;;2.88;2.42;;;7.80;99.90;;;;;;5052531;28;20580;-78
2021/11/13 07:50:42;;;;;;;1.30;1.30;;;7.90;99.90;;;;;;5052582;28;20203;-77
2021/11/13 07:53:10;;;;;;;2.00;1.90;;;7.90;99.90;;;;;;5052893;28;20237;-78
2021/11/13 07:55:38;;;;;;;2.70;1.38;;;7.90;99.90;;;;;;5053146;28;20299;-77
2021/11/13 07:58:06;;;;;;;1.40;1.27;;;7.90;99.90;;;;;;5052609;28;20684;-77
2021/11/13 08:00:33;;;;;;;1.40;1.30;;;8.00;99.90;;;;;;5052601;28;20603;-77
2021/11/13 08:03:02;;;;;;;0.50;0.40;;;8.00;99.90;;;;;;5052704;28;20212;-77
2021/11/13 08:05:29;;;;;;;1.30;1.20;;;8.00;99.90;;;;;;5052799;28;20196;-76
2021/11/13 08:07:56;;;;;;;1.58;1.48;;;8.10;99.90;;;;;;5052541;28;20218;-77
2021/11/13 08:10:22;;;;;;;0.70;0.70;;;8.20;99.90;;;;;;5051993;28;20197;-78
2021/11/13 08:12:49;;;;;;;2.70;2.60;;;8.20;99.90;;;;;;5052120;28;20197;-77
2021/11/13 08:15:17;;;;;;;5.05;4.63;;;8.20;99.90;;;;;;5052258;28;20213;-78
2021/11/13 08:17:44;;;;;;;8.35;4.63;;;8.20;99.90;;;;;;5052655;28;20228;-78
2021/11/13 08:20:14;;;;;;;2.25;2.00;;;8.20;99.90;;;;;;5052647;28;20196;-77
2021/11/13 08:22:43;;;;;;;1.20;1.20;;;8.30;99.90;;;;;;5052581;28;20286;-77
2021/11/13 08:25:12;;;;;;;3.85;2.35;;;8.20;99.90;;;;;;5051669;28;20189;-77
2021/11/13 08:27:39;;;;;;;0.93;0.93;;;8.30;99.90;;;;;;5051911;28;20216;-77
2021/11/13 08:30:08;;;;;;;3.05;2.85;;;8.30;99.90;;;;;;5052146;28;20250;-74
2021/11/13 08:32:37;;;;;;;8.13;3.42;;;8.40;99.90;;;;;;5052353;28;20199;-77
2021/11/13 08:35:05;;;;;;;2.15;1.38;;;8.40;99.90;;;;;;5051599;28;20216;-78
2021/11/13 08:37:33;;;;;;;0.88;0.88;;;8.40;99.90;;;;;;5051942;28;20220;-77
2021/11/13 08:40:00;;;;;;;1.17;1.08;;;8.50;99.90;;;;;;5051532;28;20203;-77
2021/11/13 08:42:27;;;;;;;2.70;1.85;;;8.60;99.90;;;;;;5051917;28;20203;-77
2021/11/13 08:44:53;;;;;;;0.82;0.75;;;8.60;99.90;;;;;;5052039;28;20191;-77
2021/11/13 08:47:20;;;;;;;2.70;2.50;;;8.70;99.90;;;;;;5050658;28;20219;-77
2021/11/13 08:49:49;;;;;;;4.18;2.65;;;8.70;99.90;;;;;;5051997;28;20196;-77
2021/11/13 08:52:18;;;;;;;0.50;0.40;;;8.70;99.90;;;;;;5048878;28;20197;-76
2021/11/13 08:54:48;;;;;;;0.60;0.50;;;8.80;99.90;;;;;;5050998;28;20195;-77
2021/11/13 08:57:15;;;;;;;13.25;3.28;;;8.80;99.90;;;;;;5051135;28;20226;-77
2021/11/13 08:59:42;;;;;;;0.50;0.40;;;8.90;99.90;;;;;;5051909;28;20195;-77
2021/11/13 09:02:13;;;;;;;8.15;1.73;;;8.90;99.90;;;;;;5051889;28;20560;-78
2021/11/13 09:04:40;;;;;;;0.82;0.65;;;8.90;99.90;;;;;;5051306;28;20276;-75
2021/11/13 09:07:09;;;;;;;1.02;0.98;;;9.00;99.90;;;;;;5051458;28;20223;-77
2021/11/13 09:09:37;;;;;;;0.50;0.40;;;9.00;99.90;;;;;;5051839;28;20572;-74
2021/11/13 09:12:08;;;;;;;0.70;0.50;;;9.00;99.90;;;;;;5051322;28;20252;-77
2021/11/13 09:14:35;;;;;;;3.90;3.53;;;9.00;99.90;;;;;;5052967;28;20205;-77
2021/11/13 09:17:03;;;;;;;2.15;0.90;;;8.90;99.90;;;;;;5052223;28;20691;-76
2021/11/13 09:19:30;;;;;;;1.20;1.20;;;9.00;99.90;;;;;;5052198;28;20200;-73
2021/11/13 09:21:57;;;;;;;2.45;1.58;;;9.10;99.90;;;;;;5052856;28;20583;-77
2021/11/13 09:24:24;;;;;;;0.95;0.95;;;9.00;99.90;;;;;;5051879;28;20196;-77
2021/11/13 09:26:52;;;;;;;0.50;0.40;;;9.00;99.90;;;;;;5051648;28;20632;-77
2021/11/13 09:29:20;;;;;;;0.60;0.50;;;9.10;99.90;;;;;;5052477;28;20197;-76
2021/11/13 09:31:48;;;;;;;0.50;0.30;;;9.10;99.90;;;;;;5052439;28;20220;-76
2021/11/13 09:34:17;;;;;;;1.92;1.83;;;9.10;99.90;;;;;;5051728;28;20644;-77
2021/11/13 09:36:45;;;;;;;0.60;0.50;;;9.10;99.90;;;;;;5051329;28;20232;-76
2021/11/13 09:39:12;;;;;;;1.85;1.73;;;9.10;99.90;;;;;;5045969;28;20188;-76
2021/11/13 09:41:39;;;;;;;1.25;1.25;;;9.10;99.90;;;;;;5044254;28;20197;-77
2021/11/13 09:44:07;;;;;;;1.67;1.50;;;9.20;99.90;;;;;;5051297;28;20233;-77
2021/11/13 09:46:36;;;;;;;0.80;0.80;;;9.20;99.90;;;;;;5051221;28;20645;-78
2021/11/13 09:49:04;;;;;;;0.50;0.40;;;9.10;99.90;;;;;;5051544;28;20206;-77
2021/11/13 09:51:31;;;;;;;1.50;1.40;;;9.10;99.90;;;;;;5051228;28;20514;-78
2021/11/13 09:53:58;;;;;;;1.73;1.63;;;9.10;99.90;;;;;;5055147;28;20576;-77
2021/11/13 09:56:25;;;;;;;4.00;3.05;;;9.10;99.90;;;;;;5054673;28;20216;-77
2021/11/13 09:58:52;;;;;;;1.63;1.52;;;9.20;99.90;;;;;;5054493;28;20211;-78
2021/11/13 10:01:20;;;;;;;1.17;1.08;;;9.30;99.90;;;;;;5055062;28;20192;-77
2021/11/13 10:03:48;;;;;;;4.75;2.95;;;9.30;99.90;;;;;;5054963;28;20549;-78
2021/11/13 10:06:15;;;;;;;6.97;2.67;;;9.30;99.90;;;;;;5055004;28;20225;-77
2021/11/13 10:08:43;;;;;;;1.20;1.20;;;9.30;99.90;;;;;;5054782;28;20720;-78
2021/11/13 10:11:14;;;;;;;1.40;1.40;;;9.30;99.90;;;;;;5053956;28;20197;-78
2021/11/13 10:13:43;;;;;;;0.50;0.35;;;9.40;99.90;;;;;;5054712;28;20204;-78
2021/11/13 10:16:14;;;;;;;4.35;2.72;;;9.50;99.90;;;;;;5054292;28;20222;-77
2021/11/13 10:18:43;;;;;;;0.50;0.43;;;9.60;99.90;;;;;;5054807;28;20185;-78
2021/11/13 10:21:13;;;;;;;0.50;0.50;;;9.70;99.90;;;;;;5054200;28;20218;-78
2021/11/13 10:23:43;;;;;;;0.98;0.98;;;9.70;99.90;;;;;;5054231;28;20206;-77
2021/11/13 10:26:14;;;;;;;1.27;1.27;;;9.70;99.90;;;;;;5054715;28;20541;-77
2021/11/13 10:28:47;;;;;;;6.35;4.28;;;9.80;99.90;;;;;;5054506;28;20200;-77
2021/11/13 10:31:19;;;;;;;0.95;0.95;;;9.80;99.90;;;;;;5053956;28;20204;-78
2021/11/13 10:33:47;;;;;;;1.85;1.75;;;9.70;99.90;;;;;;5053917;28;20521;-77
2021/11/13 10:36:21;;;;;;;2.10;1.33;;;9.80;99.90;;;;;;5053989;28;20224;-77
2021/11/13 10:38:49;;;;;;;2.70;1.88;;;9.80;99.90;;;;;;5054286;28;20193;-77
2021/11/13 10:41:16;;;;;;;2.88;2.78;;;9.80;99.90;;;;;;5053909;28;20292;-77
2021/11/13 10:43:46;;;;;;;1.60;1.48;;;9.80;99.90;;;;;;5054198;28;20537;-78
2021/11/13 10:46:15;;;;;;;0.50;0.38;;;9.90;99.90;;;;;;5054163;28;20200;-77
2021/11/13 10:48:44;;;;;;;2.58;2.42;;;9.90;99.90;;;;;;5053753;28;20202;-77
2021/11/13 10:51:13;;;;;;;0.88;0.88;;;9.90;99.90;;;;;;5085826;22;20220;-81
2021/11/13 10:53:43;;;;;;;1.05;0.60;;;10.00;99.90;;;;;;5083866;28;20200;-81
2021/11/13 10:56:14;;;;;;;0.50;0.40;;;10.10;99.90;;;;;;5083413;28;20227;-81
2021/11/13 10:58:44;;;;;;;1.05;0.95;;;10.20;99.90;;;;;;5083704;28;20201;-81
2021/11/13 11:01:26;;;;;;;0.50;0.40;;;10.30;99.90;;;;;;5082532;28;20591;-82
2021/11/13 11:03:58;;;;;;;3.40;3.10;;;10.30;99.90;;;;;;5081729;28;20472;-83
2021/11/13 11:06:30;;;;;;;1.50;1.17;;;10.40;99.90;;;;;;5083128;28;20204;-81
2021/11/13 11:08:58;;;;;;;0.50;0.40;;;10.40;99.90;;;;;;5089210;28;20177;-81
2021/11/13 11:11:28;;;;;;;1.52;1.45;;;10.40;99.90;;;;;;5087277;28;20214;-81
2021/11/13 11:13:56;;;;;;;0.88;0.80;;;10.40;99.90;;;;;;5087308;28;20192;-81
2021/11/13 11:16:27;;;;;;;0.50;0.50;;;10.30;99.90;;;;;;5090476;28;20225;-80
2021/11/13 11:18:59;;;;;;;0.70;0.70;;;10.30;99.90;;;;;;5084955;28;20186;-81
2021/11/13 11:21:44;;;;;;;1.05;0.82;;;10.30;99.90;;;;;;5088738;28;20224;-81
2021/11/13 11:24:14;;;;;;;0.73;0.73;;;10.30;99.90;;;;;;5087678;28;20185;-81
2021/11/13 11:26:43;;;;;;;2.13;2.05;;;10.30;99.90;;;;;;5086736;28;20646;-82
2021/11/13 11:29:10;;;;;;;4.40;3.38;;;10.30;99.90;;;;;;5084552;28;20219;-81
2021/11/13 11:31:46;;;;;;;1.05;1.02;;;10.30;99.90;;;;;;5087855;28;20227;-83
2021/11/13 11:34:24;;;;;;;1.02;1.02;;;10.20;99.90;;;;;;5084873;28;20665;-82
2021/11/13 11:36:51;;;;;;;0.77;0.77;;;10.30;99.90;;;;;;5083479;28;20567;-81
2021/11/13 11:39:19;;;;;;;3.15;2.95;;;10.30;99.90;;;;;;5084679;28;20193;-81
2021/11/13 11:41:47;;;;;;;1.15;0.75;;;10.30;99.90;;;;;;5083306;28;20222;-80
2021/11/13 11:44:17;;;;;;;2.90;1.35;;;10.30;99.90;;;;;;5081930;28;20208;-80
2021/11/13 11:46:44;;;;;;;1.73;1.63;;;10.40;99.90;;;;;;5083979;28;20662;-82
2021/11/13 11:49:12;;;;;;;1.08;1.08;;;10.40;99.90;;;;;;5083740;28;20213;-81
2021/11/13 11:51:39;;;;;;;0.50;0.40;;;10.40;99.90;;;;;;5081550;28;20327;-83
2021/11/13 11:54:07;;;;;;;0.50;0.32;;;10.40;99.90;;;;;;5082958;28;20583;-81
2021/11/13 11:56:37;;;;;;;0.77;0.77;;;10.40;99.90;;;;;;5082424;28;20220;-82
2021/11/13 11:59:06;;;;;;;0.60;0.57;;;10.40;99.90;;;;;;5083189;28;20197;-81
2021/11/13 12:01:36;;;;;;;0.90;0.85;;;10.40;99.90;;;;;;5081555;28;20240;-82
2021/11/13 12:04:20;;;;;;;0.50;0.40;;;10.40;99.90;;;;;;5082731;28;20198;-82
2021/11/13 12:06:52;;;;;;;0.50;0.30;;;10.40;99.90;;;;;;5081455;28;20207;-81
2021/11/13 12:09:19;;;;;;;1.00;1.00;;;10.50;99.90;;;;;;5081384;28;20182;-80
2021/11/13 12:11:48;;;;;;;0.50;0.40;;;10.50;99.90;;;;;;5080930;28;20216;-80
2021/11/13 12:14:34;;;;;;;0.50;0.40;;;10.50;99.90;;;;;;5081556;28;20197;-80
2021/11/13 12:17:26;;;;;;;0.50;0.40;;;10.50;99.90;;;;;;5080766;28;20229;-80
2021/11/13 12:20:30;;;;;;;0.50;0.30;;;10.60;99.90;;;;;;5076474;28;20205;-79
2021/11/13 12:23:16;;;;;;;3.65;2.72;;;10.60;99.90;;;;;;5081211;28;20202;-81
2021/11/13 12:26:08;;;;;;;0.50;0.30;;;10.70;99.90;;;;;;5081042;28;20197;-81
2021/11/13 12:28:50;;;;;;;0.50;0.40;;;10.70;99.90;;;;;;5081393;28;20444;-81
2021/11/13 12:31:20;;;;;;;2.97;0.90;;;10.70;99.90;;;;;;5080748;28;20214;-81
2021/11/13 12:34:02;;;;;;;0.50;0.40;;;10.60;99.90;;;;;;5081130;28;20627;-80
2021/11/13 12:36:34;;;;;;;2.17;1.58;;;10.70;99.90;;;;;;5080136;28;20583;-81
2021/11/13 12:39:14;;;;;;;1.70;1.60;;;10.60;99.90;;;;;;5080902;28;20261;-81
2021/11/13 12:41:44;;;;;;;0.80;0.80;;;10.70;99.90;;;;;;5080456;28;20460;-80
2021/11/13 12:44:15;;;;;;;2.05;1.85;;;10.60;99.90;;;;;;5081637;28;20192;-81
2021/11/13 12:46:46;;;;;;;0.90;0.82;;;10.60;99.90;;;;;;5082215;28;20181;-81
2021/11/13 12:49:34;;;;;;;1.60;1.40;;;10.60;99.90;;;;;;5082528;28;20207;-81
2021/11/13 12:52:06;;;;;;;0.73;0.73;;;10.70;99.90;;;;;;5082442;28;20225;-82
2021/11/13 12:54:35;;;;;;;1.35;1.27;;;10.80;99.90;;;;;;5082129;28;20188;-81
2021/11/13 12:57:05;;;;;;;1.30;1.30;;;10.90;99.90;;;;;;5080806;28;20221;-81
2021/11/13 12:59:35;;;;;;;0.85;0.85;;;11.00;99.90;;;;;;5081182;28;20188;-81
2021/11/13 13:02:05;;;;;;;0.50;0.30;;;11.10;99.90;;;;;;5080018;28;20225;-80